JTC319 VABB-LOWS
Flight info
| Callsign | JTC319 |
|---|---|
| Flight time | N/A |
| Altitude | 38000 |
| Route | RAXE2A SAKUN V1 BIMOT V2 SUGID N571 MENSA DCT MITIX M557 TUMAK L602 GADSI M860 NINVA UM860 ODALI UL852 NEGEM T746 ARGES DCT BUDOP DCT TORNO DCT NATEX DCT NUBRA NUBR3R |
| Aircraft | A319/M-SDE3FGHIRWY/LB1 |
Departure
| Time | N/A |
|---|---|
| Airport | Chhatrapati Shivaji Maharaj International Airport (VABB) |
Arrival
| Time | 2026-04-29 20:50 |
|---|---|
| Airport | Salzburg Airport (LOWS) |
| Time | Latitude | Longitude | Altitude | Speed | Heading |
|---|---|---|---|---|---|
| 2026-04-29 16:29 | 35.39163 | 44.26133 | 38003 ft | 444 kts | 330° |
| 2026-04-29 16:30 | 35.44858 | 44.23164 | 37997 ft | 444 kts | 330° |
| 2026-04-29 16:30 | 35.50547 | 44.20219 | 38010 ft | 444 kts | 330° |
| 2026-04-29 16:31 | 35.56200 | 44.17309 | 38004 ft | 443 kts | 330° |
| 2026-04-29 16:31 | 35.61886 | 44.14378 | 37997 ft | 443 kts | 330° |
| 2026-04-29 16:32 | 35.67566 | 44.11446 | 38017 ft | 443 kts | 330° |
| 2026-04-29 16:32 | 35.73239 | 44.08498 | 37995 ft | 443 kts | 330° |
| 2026-04-29 16:33 | 35.81737 | 44.04068 | 38002 ft | 442 kts | 331° |
| 2026-04-29 16:33 | 35.87400 | 44.01126 | 38005 ft | 441 kts | 331° |
| 2026-04-29 16:34 | 35.92138 | 43.98663 | 38012 ft | 441 kts | 331° |
| 2026-04-29 16:34 | 35.97758 | 43.95733 | 37989 ft | 441 kts | 331° |
| 2026-04-29 16:35 | 36.03405 | 43.92771 | 37970 ft | 441 kts | 330° |
| 2026-04-29 16:35 | 36.09048 | 43.89807 | 37972 ft | 441 kts | 331° |
| 2026-04-29 16:36 | 36.14693 | 43.86850 | 37955 ft | 440 kts | 331° |
| 2026-04-29 16:36 | 36.20334 | 43.83892 | 37958 ft | 440 kts | 331° |
| 2026-04-29 16:37 | 36.25973 | 43.80926 | 37953 ft | 440 kts | 331° |
| 2026-04-29 16:37 | 36.30658 | 43.78464 | 37955 ft | 440 kts | 331° |
| 2026-04-29 16:38 | 36.37268 | 43.75050 | 37983 ft | 440 kts | 332° |
| 2026-04-29 16:38 | 36.42921 | 43.72119 | 37991 ft | 440 kts | 331° |
| 2026-04-29 16:39 | 36.48569 | 43.69177 | 37988 ft | 440 kts | 331° |
| 2026-04-29 16:39 | 36.54217 | 43.66239 | 38003 ft | 440 kts | 332° |
| 2026-04-29 16:40 | 36.59863 | 43.63301 | 38006 ft | 440 kts | 332° |
| 2026-04-29 16:40 | 36.65508 | 43.60357 | 38015 ft | 440 kts | 332° |
| 2026-04-29 16:41 | 36.71152 | 43.57409 | 38005 ft | 440 kts | 332° |
| 2026-04-29 16:41 | 36.76789 | 43.54442 | 38007 ft | 440 kts | 331° |
| 2026-04-29 16:42 | 36.82367 | 43.51339 | 38019 ft | 439 kts | 330° |
| 2026-04-29 16:42 | 36.87917 | 43.48176 | 38018 ft | 438 kts | 330° |
| 2026-04-29 16:43 | 36.93481 | 43.45042 | 38025 ft | 439 kts | 330° |
| 2026-04-29 16:43 | 36.99054 | 43.41928 | 38035 ft | 439 kts | 330° |
| 2026-04-29 16:44 | 37.04621 | 43.38812 | 38019 ft | 438 kts | 330° |
| 2026-04-29 16:44 | 37.10155 | 43.35712 | 38020 ft | 439 kts | 330° |
| 2026-04-29 16:45 | 37.15721 | 43.32572 | 38038 ft | 438 kts | 330° |
| 2026-04-29 16:45 | 37.21278 | 43.29427 | 38032 ft | 438 kts | 330° |
| 2026-04-29 16:46 | 37.26841 | 43.26282 | 38035 ft | 438 kts | 330° |
| 2026-04-29 16:46 | 37.32259 | 43.22859 | 38044 ft | 431 kts | 320° |
| 2026-04-29 16:47 | 37.36487 | 43.17729 | 38038 ft | 418 kts | 301° |
| 2026-04-29 16:47 | 37.39367 | 43.11461 | 38034 ft | 413 kts | 294° |
| 2026-04-29 16:48 | 37.42085 | 43.05090 | 38041 ft | 413 kts | 294° |
| 2026-04-29 16:48 | 37.44803 | 42.98714 | 38040 ft | 413 kts | 294° |
| 2026-04-29 16:49 | 37.47511 | 42.92351 | 38037 ft | 412 kts | 294° |
| 2026-04-29 16:49 | 37.50219 | 42.85978 | 38055 ft | 413 kts | 294° |
| 2026-04-29 16:50 | 37.52921 | 42.79600 | 38047 ft | 412 kts | 294° |
| 2026-04-29 16:50 | 37.55613 | 42.73224 | 38046 ft | 412 kts | 294° |
| 2026-04-29 16:51 | 37.58297 | 42.66845 | 38040 ft | 412 kts | 294° |
| 2026-04-29 16:51 | 37.60973 | 42.60463 | 38050 ft | 411 kts | 294° |
| 2026-04-29 16:52 | 37.63649 | 42.54088 | 38041 ft | 411 kts | 294° |
| 2026-04-29 16:52 | 37.66327 | 42.47713 | 38035 ft | 411 kts | 294° |
| 2026-04-29 16:53 | 37.69003 | 42.41340 | 38032 ft | 411 kts | 294° |
| 2026-04-29 16:53 | 37.71678 | 42.34970 | 38034 ft | 410 kts | 294° |
| 2026-04-29 16:54 | 37.74338 | 42.28591 | 38034 ft | 410 kts | 294° |
| 2026-04-29 16:54 | 37.76992 | 42.22213 | 38026 ft | 410 kts | 294° |
| 2026-04-29 16:55 | 37.79646 | 42.15840 | 38023 ft | 409 kts | 294° |
| 2026-04-29 16:55 | 37.82272 | 42.09503 | 38019 ft | 410 kts | 294° |
| 2026-04-29 16:56 | 37.84916 | 42.03117 | 38019 ft | 410 kts | 294° |
| 2026-04-29 16:56 | 37.87560 | 41.96733 | 38014 ft | 410 kts | 294° |
| 2026-04-29 16:57 | 37.90200 | 41.90339 | 38014 ft | 410 kts | 294° |
| 2026-04-29 16:57 | 37.93635 | 41.84502 | 38014 ft | 417 kts | 307° |
| 2026-04-29 16:58 | 37.97473 | 41.78999 | 38015 ft | 417 kts | 307° |
| 2026-04-29 16:58 | 38.01319 | 41.73495 | 38031 ft | 417 kts | 307° |
| 2026-04-29 16:59 | 38.05159 | 41.67982 | 38040 ft | 417 kts | 307° |
| 2026-04-29 16:59 | 38.08989 | 41.62456 | 38036 ft | 417 kts | 307° |
| 2026-04-29 17:00 | 38.12809 | 41.56928 | 38052 ft | 416 kts | 307° |
| 2026-04-29 17:00 | 38.16629 | 41.51400 | 38047 ft | 416 kts | 307° |
| 2026-04-29 17:01 | 38.20445 | 41.45874 | 38046 ft | 416 kts | 307° |
| 2026-04-29 17:01 | 38.24259 | 41.40341 | 38054 ft | 416 kts | 307° |
| 2026-04-29 17:02 | 38.28064 | 41.34807 | 38052 ft | 416 kts | 307° |
| 2026-04-29 17:02 | 38.31866 | 41.29269 | 38047 ft | 415 kts | 307° |
| 2026-04-29 17:03 | 38.35660 | 41.23733 | 38054 ft | 415 kts | 307° |
| 2026-04-29 17:03 | 38.39453 | 41.18184 | 38047 ft | 415 kts | 307° |
| 2026-04-29 17:04 | 38.43236 | 41.12631 | 38049 ft | 415 kts | 307° |
| 2026-04-29 17:04 | 38.46987 | 41.07109 | 38046 ft | 415 kts | 307° |
| 2026-04-29 17:05 | 38.50712 | 41.01498 | 38046 ft | 414 kts | 306° |
| 2026-04-29 17:05 | 38.54385 | 40.95845 | 38043 ft | 413 kts | 306° |
| 2026-04-29 17:06 | 38.58053 | 40.90187 | 38039 ft | 413 kts | 306° |
| 2026-04-29 17:06 | 38.61726 | 40.84541 | 38043 ft | 413 kts | 306° |
| 2026-04-29 17:07 | 38.64789 | 40.79851 | 38049 ft | 413 kts | 306° |
| 2026-04-29 17:07 | 38.69141 | 40.73302 | 38047 ft | 413 kts | 306° |
| 2026-04-29 17:08 | 38.72867 | 40.67702 | 38041 ft | 413 kts | 306° |
| 2026-04-29 17:08 | 38.76575 | 40.62093 | 38042 ft | 413 kts | 306° |
| 2026-04-29 17:09 | 38.80275 | 40.56467 | 38031 ft | 412 kts | 306° |
| 2026-04-29 17:09 | 38.83967 | 40.50842 | 38018 ft | 412 kts | 306° |
| 2026-04-29 17:10 | 38.87659 | 40.45221 | 38026 ft | 412 kts | 306° |
| 2026-04-29 17:10 | 38.91341 | 40.39601 | 38022 ft | 411 kts | 306° |
| 2026-04-29 17:11 | 38.94998 | 40.34004 | 38018 ft | 411 kts | 306° |
| 2026-04-29 17:11 | 38.98673 | 40.28381 | 38020 ft | 411 kts | 306° |
| 2026-04-29 17:12 | 39.02345 | 40.22748 | 38011 ft | 411 kts | 306° |
| 2026-04-29 17:12 | 39.05392 | 40.18062 | 38016 ft | 411 kts | 306° |
| 2026-04-29 17:13 | 39.09676 | 40.11473 | 38012 ft | 410 kts | 306° |
| 2026-04-29 17:13 | 39.13333 | 40.05830 | 38007 ft | 410 kts | 306° |
| 2026-04-29 17:14 | 39.16980 | 40.00187 | 37995 ft | 410 kts | 306° |
| 2026-04-29 17:14 | 39.20625 | 39.94544 | 37990 ft | 409 kts | 306° |
| 2026-04-29 17:15 | 39.24263 | 39.88894 | 37995 ft | 409 kts | 306° |
| 2026-04-29 17:15 | 39.27894 | 39.83239 | 37991 ft | 409 kts | 306° |
| 2026-04-29 17:16 | 39.31532 | 39.77582 | 37996 ft | 409 kts | 306° |
| 2026-04-29 17:16 | 39.35163 | 39.71924 | 38003 ft | 409 kts | 306° |
| 2026-04-29 17:17 | 39.38781 | 39.66263 | 38001 ft | 408 kts | 306° |
| 2026-04-29 17:17 | 39.42367 | 39.60636 | 38011 ft | 408 kts | 306° |
| 2026-04-29 17:18 | 39.45979 | 39.54971 | 38014 ft | 408 kts | 306° |
| 2026-04-29 17:18 | 39.49589 | 39.49305 | 38031 ft | 407 kts | 306° |
| 2026-04-29 17:19 | 39.53173 | 39.43633 | 38034 ft | 407 kts | 306° |
| 2026-04-29 17:19 | 39.56715 | 39.37934 | 38025 ft | 405 kts | 306° |
| 2026-04-29 17:20 | 39.60238 | 39.32226 | 38019 ft | 405 kts | 306° |
| 2026-04-29 17:20 | 39.63761 | 39.26519 | 38029 ft | 405 kts | 306° |
| 2026-04-29 17:21 | 39.67286 | 39.20825 | 38037 ft | 404 kts | 306° |
| 2026-04-29 17:21 | 39.70800 | 39.15147 | 38031 ft | 403 kts | 306° |
| 2026-04-29 17:22 | 39.74308 | 39.09474 | 38055 ft | 403 kts | 306° |
| 2026-04-29 17:22 | 39.77822 | 39.03878 | 38045 ft | 402 kts | 306° |
| 2026-04-29 17:23 | 39.81360 | 38.98252 | 38039 ft | 401 kts | 306° |
| 2026-04-29 17:23 | 39.84884 | 38.92624 | 38055 ft | 401 kts | 306° |
| 2026-04-29 17:24 | 39.87803 | 38.87949 | 38048 ft | 400 kts | 306° |
| 2026-04-29 17:24 | 39.91309 | 38.82330 | 38046 ft | 399 kts | 306° |
| 2026-04-29 17:25 | 39.94805 | 38.76716 | 38051 ft | 399 kts | 306° |
| 2026-04-29 17:25 | 39.98288 | 38.71103 | 38059 ft | 398 kts | 305° |
| 2026-04-29 17:26 | 40.01760 | 38.65493 | 38064 ft | 397 kts | 305° |
| 2026-04-29 17:26 | 40.05225 | 38.59891 | 38061 ft | 396 kts | 305° |
| 2026-04-29 17:27 | 40.08688 | 38.54293 | 38062 ft | 396 kts | 305° |
| 2026-04-29 17:27 | 40.12142 | 38.48691 | 38080 ft | 395 kts | 305° |
| 2026-04-29 17:28 | 40.15587 | 38.43098 | 38073 ft | 395 kts | 305° |
| 2026-04-29 17:28 | 40.19022 | 38.37508 | 38074 ft | 394 kts | 305° |
| 2026-04-29 17:29 | 40.22453 | 38.31913 | 38092 ft | 394 kts | 305° |
| 2026-04-29 17:29 | 40.25879 | 38.26312 | 38088 ft | 394 kts | 305° |
| 2026-04-29 17:30 | 40.29300 | 38.20708 | 38083 ft | 394 kts | 305° |
| 2026-04-29 17:30 | 40.32589 | 38.14995 | 38106 ft | 391 kts | 297° |
| 2026-04-29 17:31 | 40.34750 | 38.08519 | 38100 ft | 388 kts | 289° |
| 2026-04-29 17:31 | 40.36734 | 38.01945 | 38095 ft | 387 kts | 289° |
| 2026-04-29 17:32 | 40.38715 | 37.95372 | 38096 ft | 388 kts | 289° |
| 2026-04-29 17:32 | 40.40688 | 37.88785 | 38115 ft | 388 kts | 289° |
| 2026-04-29 17:33 | 40.42655 | 37.82190 | 38137 ft | 388 kts | 289° |
| 2026-04-29 17:33 | 40.44622 | 37.75597 | 38142 ft | 388 kts | 289° |
| 2026-04-29 17:34 | 40.46571 | 37.69055 | 38156 ft | 387 kts | 289° |
| 2026-04-29 17:34 | 40.48531 | 37.62465 | 38158 ft | 387 kts | 289° |
| 2026-04-29 17:35 | 40.51462 | 37.52577 | 38174 ft | 387 kts | 289° |
| 2026-04-29 17:36 | 40.53408 | 37.45986 | 38178 ft | 387 kts | 289° |
| 2026-04-29 17:36 | 40.55352 | 37.39391 | 38175 ft | 386 kts | 289° |
| 2026-04-29 17:37 | 40.57283 | 37.32801 | 38177 ft | 386 kts | 289° |
| 2026-04-29 17:37 | 40.59216 | 37.26209 | 38201 ft | 386 kts | 289° |
| 2026-04-29 17:38 | 40.61142 | 37.19626 | 38199 ft | 385 kts | 289° |
| 2026-04-29 17:38 | 40.63055 | 37.13047 | 38196 ft | 384 kts | 289° |
| 2026-04-29 17:39 | 40.64974 | 37.06491 | 38189 ft | 384 kts | 289° |
| 2026-04-29 17:39 | 40.66889 | 36.99931 | 38188 ft | 384 kts | 289° |
| 2026-04-29 17:40 | 40.68792 | 36.93367 | 38193 ft | 383 kts | 289° |
| 2026-04-29 17:40 | 40.70685 | 36.86811 | 38201 ft | 382 kts | 289° |
| 2026-04-29 17:41 | 40.72566 | 36.80251 | 38209 ft | 383 kts | 289° |
| 2026-04-29 17:41 | 40.74446 | 36.73690 | 38202 ft | 383 kts | 289° |
| 2026-04-29 17:42 | 40.76330 | 36.67128 | 38224 ft | 382 kts | 289° |
| 2026-04-29 17:42 | 40.78210 | 36.60564 | 38221 ft | 382 kts | 288° |
| 2026-04-29 17:43 | 40.80084 | 36.54000 | 38207 ft | 382 kts | 289° |
| 2026-04-29 17:43 | 40.81956 | 36.47442 | 38207 ft | 382 kts | 289° |
| 2026-04-29 17:44 | 40.83822 | 36.40879 | 38209 ft | 382 kts | 288° |
| 2026-04-29 17:44 | 40.85679 | 36.34309 | 38193 ft | 382 kts | 288° |
| 2026-04-29 17:45 | 40.87520 | 36.27782 | 38194 ft | 381 kts | 288° |
| 2026-04-29 17:45 | 40.89370 | 36.21217 | 38173 ft | 381 kts | 288° |
| 2026-04-29 17:46 | 40.91219 | 36.14644 | 38179 ft | 381 kts | 288° |
| 2026-04-29 17:46 | 40.93057 | 36.08072 | 38178 ft | 381 kts | 288° |
| 2026-04-29 17:47 | 40.94892 | 36.01502 | 38180 ft | 380 kts | 288° |
| 2026-04-29 17:47 | 40.96724 | 35.94940 | 38162 ft | 380 kts | 288° |
| 2026-04-29 17:48 | 40.98547 | 35.88380 | 38149 ft | 380 kts | 288° |
| 2026-04-29 17:48 | 41.00361 | 35.81818 | 38158 ft | 380 kts | 288° |
| 2026-04-29 17:49 | 41.02181 | 35.75255 | 38149 ft | 379 kts | 288° |
| 2026-04-29 17:49 | 41.03997 | 35.68699 | 38149 ft | 379 kts | 288° |
| 2026-04-29 17:50 | 41.05805 | 35.62137 | 38128 ft | 379 kts | 288° |
| 2026-04-29 17:50 | 41.07607 | 35.55573 | 38123 ft | 379 kts | 288° |
| 2026-04-29 17:51 | 41.09403 | 35.49007 | 38112 ft | 379 kts | 288° |
| 2026-04-29 17:51 | 41.11196 | 35.42439 | 38109 ft | 379 kts | 288° |
| 2026-04-29 17:52 | 41.12985 | 35.35872 | 38116 ft | 379 kts | 288° |
| 2026-04-29 17:52 | 41.14776 | 35.29301 | 38126 ft | 379 kts | 288° |
| 2026-04-29 17:53 | 41.16564 | 35.22733 | 38128 ft | 379 kts | 288° |
| 2026-04-29 17:53 | 41.18346 | 35.16156 | 38135 ft | 379 kts | 288° |
| 2026-04-29 17:54 | 41.20115 | 35.09568 | 38135 ft | 379 kts | 288° |
| 2026-04-29 17:54 | 41.21871 | 35.03021 | 38135 ft | 379 kts | 288° |
| 2026-04-29 17:55 | 41.23643 | 34.96429 | 38138 ft | 379 kts | 288° |
| 2026-04-29 17:55 | 41.25402 | 34.89840 | 38139 ft | 379 kts | 288° |
| 2026-04-29 17:56 | 41.27165 | 34.83238 | 38131 ft | 379 kts | 288° |
| 2026-04-29 17:56 | 41.28914 | 34.76634 | 38134 ft | 379 kts | 288° |
| 2026-04-29 17:57 | 41.30676 | 34.70033 | 38136 ft | 379 kts | 288° |
| 2026-04-29 17:57 | 41.32439 | 34.63437 | 38141 ft | 378 kts | 288° |
| 2026-04-29 17:58 | 41.34191 | 34.56830 | 38138 ft | 379 kts | 288° |
| 2026-04-29 17:58 | 41.35934 | 34.50208 | 38136 ft | 379 kts | 288° |
| 2026-04-29 17:59 | 41.37667 | 34.43625 | 38143 ft | 379 kts | 288° |
| 2026-04-29 17:59 | 41.39406 | 34.36993 | 38143 ft | 379 kts | 288° |
| 2026-04-29 18:00 | 41.41139 | 34.30352 | 38166 ft | 379 kts | 288° |
| 2026-04-29 18:00 | 41.42857 | 34.23701 | 38164 ft | 380 kts | 288° |
| 2026-04-29 18:01 | 41.44568 | 34.17052 | 38165 ft | 379 kts | 287° |
| 2026-04-29 18:01 | 41.46283 | 34.10398 | 38173 ft | 379 kts | 288° |
| 2026-04-29 18:02 | 41.48001 | 34.03751 | 38198 ft | 379 kts | 288° |
| 2026-04-29 18:02 | 41.49711 | 33.97110 | 38199 ft | 378 kts | 288° |
| 2026-04-29 18:03 | 41.51412 | 33.90477 | 38194 ft | 377 kts | 288° |
| 2026-04-29 18:03 | 41.53107 | 33.83859 | 38197 ft | 377 kts | 288° |
| 2026-04-29 18:04 | 41.54795 | 33.77240 | 38194 ft | 377 kts | 288° |
| 2026-04-29 18:04 | 41.56478 | 33.70624 | 38203 ft | 376 kts | 288° |
| 2026-04-29 18:05 | 41.58153 | 33.64010 | 38198 ft | 376 kts | 288° |
| 2026-04-29 18:05 | 41.59821 | 33.57400 | 38195 ft | 375 kts | 288° |
| 2026-04-29 18:06 | 41.61487 | 33.50796 | 38194 ft | 375 kts | 288° |
| 2026-04-29 18:06 | 41.63144 | 33.44190 | 38183 ft | 375 kts | 288° |
| 2026-04-29 18:07 | 41.64792 | 33.37632 | 38188 ft | 374 kts | 288° |
| 2026-04-29 18:07 | 41.66441 | 33.31045 | 38187 ft | 373 kts | 288° |
| 2026-04-29 18:08 | 41.68084 | 33.24462 | 38181 ft | 373 kts | 288° |
| 2026-04-29 18:08 | 41.69721 | 33.17883 | 38184 ft | 373 kts | 288° |
| 2026-04-29 18:09 | 41.71354 | 33.11304 | 38183 ft | 372 kts | 288° |
| 2026-04-29 18:09 | 41.72976 | 33.04727 | 38191 ft | 372 kts | 288° |
| 2026-04-29 18:10 | 41.74590 | 32.98154 | 38186 ft | 372 kts | 288° |
| 2026-04-29 18:10 | 41.76205 | 32.91579 | 38183 ft | 372 kts | 288° |
| 2026-04-29 18:11 | 41.77822 | 32.84995 | 38169 ft | 372 kts | 288° |
| 2026-04-29 18:11 | 41.79432 | 32.78413 | 38183 ft | 372 kts | 287° |
| 2026-04-29 18:12 | 41.81042 | 32.71834 | 38190 ft | 371 kts | 287° |
| 2026-04-29 18:12 | 41.82626 | 32.65300 | 38183 ft | 371 kts | 287° |
| 2026-04-29 18:13 | 41.84217 | 32.58731 | 38183 ft | 370 kts | 287° |
| 2026-04-29 18:13 | 41.85805 | 32.52159 | 38185 ft | 370 kts | 287° |
| 2026-04-29 18:14 | 41.87125 | 32.46659 | 38180 ft | 370 kts | 287° |
| 2026-04-29 18:14 | 41.88699 | 32.40093 | 38184 ft | 369 kts | 287° |
| 2026-04-29 18:15 | 41.90250 | 32.33574 | 38168 ft | 369 kts | 287° |
| 2026-04-29 18:15 | 41.91821 | 32.27015 | 38173 ft | 369 kts | 287° |
| 2026-04-29 18:16 | 41.93395 | 32.20464 | 38171 ft | 369 kts | 287° |
| 2026-04-29 18:16 | 41.94963 | 32.13908 | 38165 ft | 369 kts | 287° |
| 2026-04-29 18:17 | 41.96523 | 32.07346 | 38166 ft | 369 kts | 287° |
| 2026-04-29 18:17 | 41.98069 | 32.00769 | 38180 ft | 369 kts | 287° |
| 2026-04-29 18:18 | 41.99611 | 31.94185 | 38186 ft | 369 kts | 287° |
| 2026-04-29 18:18 | 42.01154 | 31.87601 | 38183 ft | 369 kts | 287° |
| 2026-04-29 18:19 | 42.02699 | 31.81029 | 38171 ft | 369 kts | 287° |
| 2026-04-29 18:19 | 42.04231 | 31.74498 | 38173 ft | 369 kts | 287° |
| 2026-04-29 18:20 | 42.05763 | 31.67916 | 38172 ft | 369 kts | 287° |
| 2026-04-29 18:20 | 42.07293 | 31.61332 | 38177 ft | 369 kts | 287° |
| 2026-04-29 18:21 | 42.08822 | 31.54737 | 38182 ft | 369 kts | 287° |
| 2026-04-29 18:21 | 42.10345 | 31.48140 | 38187 ft | 369 kts | 287° |
| 2026-04-29 18:22 | 42.11861 | 31.41537 | 38190 ft | 369 kts | 287° |
| 2026-04-29 18:22 | 42.13385 | 31.34933 | 38188 ft | 369 kts | 287° |
| 2026-04-29 18:23 | 42.14901 | 31.28332 | 38189 ft | 369 kts | 287° |
| 2026-04-29 18:23 | 42.16409 | 31.21724 | 38187 ft | 369 kts | 287° |
| 2026-04-29 18:24 | 42.17911 | 31.15116 | 38187 ft | 369 kts | 286° |
| 2026-04-29 18:24 | 42.19412 | 31.08499 | 38186 ft | 369 kts | 286° |
| 2026-04-29 18:25 | 42.20909 | 31.01869 | 38187 ft | 369 kts | 286° |
| 2026-04-29 18:25 | 42.22394 | 30.95291 | 38188 ft | 369 kts | 286° |
| 2026-04-29 18:26 | 42.23891 | 30.88663 | 38191 ft | 369 kts | 286° |
| 2026-04-29 18:26 | 42.25376 | 30.82024 | 38192 ft | 369 kts | 286° |
| 2026-04-29 18:27 | 42.26851 | 30.75389 | 38191 ft | 369 kts | 286° |
| 2026-04-29 18:27 | 42.28332 | 30.68757 | 38189 ft | 369 kts | 286° |
| 2026-04-29 18:28 | 42.29812 | 30.62124 | 38200 ft | 369 kts | 286° |
| 2026-04-29 18:28 | 42.31278 | 30.55485 | 38194 ft | 369 kts | 286° |
| 2026-04-29 18:29 | 42.32734 | 30.48844 | 38185 ft | 369 kts | 286° |
| 2026-04-29 18:29 | 42.34198 | 30.42197 | 38185 ft | 369 kts | 286° |
| 2026-04-29 18:30 | 42.35662 | 30.35547 | 38186 ft | 369 kts | 286° |
| 2026-04-29 18:30 | 42.37105 | 30.28890 | 38195 ft | 369 kts | 286° |
| 2026-04-29 18:31 | 42.38552 | 30.22229 | 38174 ft | 369 kts | 286° |
| 2026-04-29 18:31 | 42.40006 | 30.15566 | 38177 ft | 369 kts | 286° |
| 2026-04-29 18:32 | 42.41456 | 30.08902 | 38177 ft | 369 kts | 286° |
| 2026-04-29 18:32 | 42.43603 | 29.98941 | 38181 ft | 369 kts | 286° |
| 2026-04-29 18:33 | 42.45031 | 29.92263 | 38185 ft | 369 kts | 286° |
| 2026-04-29 18:33 | 42.46923 | 29.85819 | 38186 ft | 371 kts | 300° |
| 2026-04-29 18:34 | 42.49507 | 29.81110 | 38186 ft | 372 kts | 305° |
| 2026-04-29 18:34 | 42.53163 | 29.74629 | 38211 ft | 372 kts | 304° |
| 2026-04-29 18:35 | 42.56298 | 29.69039 | 38202 ft | 372 kts | 304° |
| 2026-04-29 18:35 | 42.59428 | 29.63452 | 38198 ft | 372 kts | 304° |
| 2026-04-29 18:36 | 42.62554 | 29.57860 | 38197 ft | 372 kts | 304° |
| 2026-04-29 18:36 | 42.65676 | 29.52264 | 38193 ft | 372 kts | 304° |
| 2026-04-29 18:37 | 42.68795 | 29.46662 | 38196 ft | 372 kts | 304° |
| 2026-04-29 18:37 | 42.71911 | 29.41050 | 38196 ft | 372 kts | 304° |
| 2026-04-29 18:38 | 42.75026 | 29.35434 | 38194 ft | 372 kts | 304° |
| 2026-04-29 18:38 | 42.78145 | 29.29818 | 38194 ft | 372 kts | 304° |
| 2026-04-29 18:39 | 42.81257 | 29.24189 | 38196 ft | 372 kts | 304° |
| 2026-04-29 18:39 | 42.84368 | 29.18550 | 38197 ft | 372 kts | 304° |
| 2026-04-29 18:40 | 42.87481 | 29.12907 | 38199 ft | 372 kts | 304° |
| 2026-04-29 18:40 | 42.90568 | 29.07295 | 38200 ft | 372 kts | 304° |
| 2026-04-29 18:41 | 42.96771 | 28.95968 | 38210 ft | 373 kts | 304° |
| 2026-04-29 18:42 | 42.99871 | 28.90296 | 38211 ft | 373 kts | 304° |
| 2026-04-29 18:42 | 43.02971 | 28.84620 | 38211 ft | 372 kts | 304° |
| 2026-04-29 18:43 | 43.06061 | 28.78942 | 38210 ft | 372 kts | 304° |
| 2026-04-29 18:43 | 43.09136 | 28.73247 | 38208 ft | 372 kts | 304° |
| 2026-04-29 18:44 | 43.12194 | 28.67541 | 38210 ft | 371 kts | 303° |
| 2026-04-29 18:44 | 43.15242 | 28.61837 | 38209 ft | 371 kts | 303° |
| 2026-04-29 18:45 | 43.18284 | 28.56139 | 38212 ft | 370 kts | 303° |
| 2026-04-29 18:45 | 43.21323 | 28.50443 | 38205 ft | 370 kts | 303° |
| 2026-04-29 18:46 | 43.24360 | 28.44746 | 38192 ft | 370 kts | 303° |
| 2026-04-29 18:46 | 43.27392 | 28.39035 | 38193 ft | 371 kts | 303° |
| 2026-04-29 18:47 | 43.30427 | 28.33317 | 38192 ft | 371 kts | 303° |
| 2026-04-29 18:47 | 43.33459 | 28.27588 | 38218 ft | 371 kts | 303° |
| 2026-04-29 18:48 | 43.36467 | 28.21885 | 38198 ft | 371 kts | 303° |
| 2026-04-29 18:48 | 43.39501 | 28.16131 | 38192 ft | 372 kts | 303° |
| 2026-04-29 18:49 | 43.42541 | 28.10360 | 38180 ft | 373 kts | 303° |
| 2026-04-29 18:49 | 43.45580 | 28.04571 | 38177 ft | 373 kts | 303° |
| 2026-04-29 18:50 | 43.48622 | 27.98778 | 38168 ft | 373 kts | 303° |
| 2026-04-29 18:50 | 43.51663 | 27.92976 | 38179 ft | 374 kts | 303° |
| 2026-04-29 18:51 | 43.54696 | 27.87166 | 38178 ft | 374 kts | 303° |
| 2026-04-29 18:51 | 43.57724 | 27.81341 | 38169 ft | 373 kts | 303° |
| 2026-04-29 18:52 | 43.60750 | 27.75522 | 38166 ft | 373 kts | 303° |
| 2026-04-29 18:52 | 43.63775 | 27.69703 | 38156 ft | 373 kts | 303° |
| 2026-04-29 18:53 | 43.66788 | 27.63873 | 38168 ft | 373 kts | 303° |
| 2026-04-29 18:53 | 43.69794 | 27.58046 | 38167 ft | 372 kts | 303° |
| 2026-04-29 18:54 | 43.72795 | 27.52229 | 38165 ft | 371 kts | 303° |
| 2026-04-29 18:54 | 43.75793 | 27.46417 | 38185 ft | 371 kts | 303° |
| 2026-04-29 18:55 | 43.78779 | 27.40601 | 38170 ft | 371 kts | 303° |
| 2026-04-29 18:55 | 43.81764 | 27.34787 | 38158 ft | 370 kts | 303° |
| 2026-04-29 18:56 | 43.84738 | 27.28973 | 38150 ft | 370 kts | 303° |
| 2026-04-29 18:56 | 43.87705 | 27.23155 | 38143 ft | 369 kts | 303° |
| 2026-04-29 18:57 | 43.90654 | 27.17380 | 38134 ft | 369 kts | 303° |
| 2026-04-29 18:57 | 43.93620 | 27.11561 | 38123 ft | 369 kts | 303° |
| 2026-04-29 18:58 | 43.96579 | 27.05733 | 38124 ft | 369 kts | 303° |
| 2026-04-29 18:58 | 43.99533 | 26.99899 | 38127 ft | 369 kts | 303° |
| 2026-04-29 18:59 | 44.02482 | 26.94065 | 38130 ft | 369 kts | 303° |
| 2026-04-29 18:59 | 44.05430 | 26.88223 | 38133 ft | 369 kts | 303° |
| 2026-04-29 19:00 | 44.08377 | 26.82373 | 38131 ft | 369 kts | 303° |
| 2026-04-29 19:00 | 44.11409 | 26.76607 | 38134 ft | 369 kts | 304° |
| 2026-04-29 19:01 | 44.14501 | 26.70890 | 38132 ft | 370 kts | 304° |
| 2026-04-29 19:01 | 44.17583 | 26.65155 | 38166 ft | 370 kts | 304° |
| 2026-04-29 19:02 | 44.20141 | 26.60361 | 38153 ft | 371 kts | 304° |
| 2026-04-29 19:02 | 44.23707 | 26.53639 | 38148 ft | 371 kts | 304° |
| 2026-04-29 19:03 | 44.26775 | 26.47842 | 38146 ft | 372 kts | 304° |
| 2026-04-29 19:03 | 44.29845 | 26.42033 | 38152 ft | 372 kts | 304° |
| 2026-04-29 19:04 | 44.32911 | 26.36211 | 38152 ft | 372 kts | 304° |
| 2026-04-29 19:04 | 44.35979 | 26.30383 | 38156 ft | 372 kts | 304° |
| 2026-04-29 19:05 | 44.39049 | 26.24548 | 38183 ft | 373 kts | 304° |
| 2026-04-29 19:05 | 44.41602 | 26.19685 | 38191 ft | 373 kts | 304° |
| 2026-04-29 19:06 | 44.44676 | 26.13830 | 38193 ft | 373 kts | 303° |
| 2026-04-29 19:07 | 44.49279 | 26.05030 | 38198 ft | 373 kts | 303° |
| 2026-04-29 19:07 | 44.52338 | 25.99155 | 38198 ft | 373 kts | 303° |
| 2026-04-29 19:08 | 44.55391 | 25.93267 | 38195 ft | 373 kts | 303° |
| 2026-04-29 19:08 | 44.58445 | 25.87374 | 38212 ft | 373 kts | 304° |
| 2026-04-29 19:09 | 44.61469 | 25.81535 | 38201 ft | 373 kts | 304° |
| 2026-04-29 19:09 | 44.64523 | 25.75639 | 38205 ft | 373 kts | 303° |
| 2026-04-29 19:10 | 44.67566 | 25.69737 | 38185 ft | 373 kts | 303° |
| 2026-04-29 19:10 | 44.70610 | 25.63827 | 38183 ft | 373 kts | 303° |
| 2026-04-29 19:11 | 44.73653 | 25.57906 | 38188 ft | 374 kts | 303° |
| 2026-04-29 19:11 | 44.76674 | 25.52012 | 38183 ft | 374 kts | 303° |
| 2026-04-29 19:12 | 44.79708 | 25.46075 | 38188 ft | 374 kts | 303° |
| 2026-04-29 19:12 | 44.82742 | 25.40131 | 38184 ft | 374 kts | 303° |
| 2026-04-29 19:13 | 44.85774 | 25.34186 | 38185 ft | 374 kts | 303° |
| 2026-04-29 19:13 | 44.88799 | 25.28228 | 38183 ft | 374 kts | 303° |
| 2026-04-29 19:14 | 44.91818 | 25.22260 | 38186 ft | 374 kts | 303° |
| 2026-04-29 19:14 | 44.94841 | 25.16293 | 38193 ft | 374 kts | 303° |
| 2026-04-29 19:15 | 44.97864 | 25.10311 | 38194 ft | 375 kts | 303° |
| 2026-04-29 19:15 | 45.00895 | 25.04316 | 38183 ft | 375 kts | 303° |
| 2026-04-29 19:16 | 45.03925 | 24.98302 | 38177 ft | 376 kts | 303° |
| 2026-04-29 19:16 | 45.06947 | 24.92264 | 38171 ft | 376 kts | 302° |
| 2026-04-29 19:17 | 45.09973 | 24.86215 | 38189 ft | 377 kts | 302° |
| 2026-04-29 19:17 | 45.13002 | 24.80162 | 38186 ft | 377 kts | 302° |
| 2026-04-29 19:18 | 45.16005 | 24.74142 | 38181 ft | 377 kts | 302° |
| 2026-04-29 19:18 | 45.19022 | 24.68074 | 38179 ft | 377 kts | 302° |
| 2026-04-29 19:19 | 45.22037 | 24.62006 | 38180 ft | 376 kts | 302° |
| 2026-04-29 19:19 | 45.25046 | 24.55926 | 38182 ft | 376 kts | 302° |
| 2026-04-29 19:20 | 45.28052 | 24.49848 | 38179 ft | 376 kts | 302° |
| 2026-04-29 19:20 | 45.31053 | 24.43767 | 38179 ft | 376 kts | 302° |
| 2026-04-29 19:21 | 45.34049 | 24.37679 | 38176 ft | 376 kts | 302° |
| 2026-04-29 19:21 | 45.37056 | 24.31581 | 38184 ft | 377 kts | 302° |
| 2026-04-29 19:22 | 45.40060 | 24.25452 | 38178 ft | 378 kts | 302° |
| 2026-04-29 19:22 | 45.43063 | 24.19310 | 38170 ft | 378 kts | 302° |
| 2026-04-29 19:23 | 45.46070 | 24.13148 | 38182 ft | 379 kts | 302° |
| 2026-04-29 19:23 | 45.49080 | 24.06980 | 38169 ft | 379 kts | 302° |
| 2026-04-29 19:24 | 45.52084 | 24.00803 | 38186 ft | 379 kts | 302° |
| 2026-04-29 19:24 | 45.55083 | 23.94612 | 38187 ft | 379 kts | 302° |
| 2026-04-29 19:25 | 45.58084 | 23.88419 | 38191 ft | 380 kts | 302° |
| 2026-04-29 19:25 | 45.61085 | 23.82205 | 38188 ft | 380 kts | 302° |
| 2026-04-29 19:26 | 45.64080 | 23.75979 | 38185 ft | 380 kts | 302° |
| 2026-04-29 19:26 | 45.67077 | 23.69747 | 38192 ft | 380 kts | 302° |
| 2026-04-29 19:27 | 45.70072 | 23.63514 | 38202 ft | 380 kts | 302° |
| 2026-04-29 19:27 | 45.73058 | 23.57281 | 38201 ft | 379 kts | 302° |
| 2026-04-29 19:28 | 45.76018 | 23.51087 | 38209 ft | 379 kts | 302° |
| 2026-04-29 19:28 | 45.78991 | 23.44845 | 38198 ft | 379 kts | 302° |
| 2026-04-29 19:29 | 45.81958 | 23.38603 | 38191 ft | 379 kts | 302° |
| 2026-04-29 19:29 | 45.84928 | 23.32353 | 38186 ft | 379 kts | 302° |
| 2026-04-29 19:30 | 45.87887 | 23.26114 | 38180 ft | 379 kts | 302° |
| 2026-04-29 19:30 | 45.90855 | 23.19826 | 38181 ft | 379 kts | 302° |
| 2026-04-29 19:31 | 45.93808 | 23.13546 | 38184 ft | 379 kts | 302° |
| 2026-04-29 19:31 | 45.96762 | 23.07257 | 38183 ft | 380 kts | 302° |
| 2026-04-29 19:32 | 45.99724 | 23.00952 | 38187 ft | 381 kts | 302° |
| 2026-04-29 19:32 | 46.02667 | 22.94684 | 38182 ft | 381 kts | 302° |
| 2026-04-29 19:33 | 46.05627 | 22.88366 | 38187 ft | 380 kts | 302° |
| 2026-04-29 19:33 | 46.08573 | 22.82036 | 38189 ft | 380 kts | 302° |
| 2026-04-29 19:34 | 46.11512 | 22.75708 | 38193 ft | 379 kts | 302° |
| 2026-04-29 19:34 | 46.14445 | 22.69393 | 38226 ft | 379 kts | 302° |
| 2026-04-29 19:35 | 46.17371 | 22.63068 | 38218 ft | 379 kts | 302° |
| 2026-04-29 19:35 | 46.20289 | 22.56736 | 38205 ft | 379 kts | 302° |
| 2026-04-29 19:36 | 46.23208 | 22.50403 | 38203 ft | 379 kts | 302° |
| 2026-04-29 19:36 | 46.26123 | 22.44064 | 38205 ft | 378 kts | 302° |
| 2026-04-29 19:37 | 46.29031 | 22.37726 | 38202 ft | 378 kts | 302° |
| 2026-04-29 19:37 | 46.31931 | 22.31391 | 38200 ft | 378 kts | 302° |
| 2026-04-29 19:38 | 46.34831 | 22.25051 | 38204 ft | 378 kts | 302° |
| 2026-04-29 19:38 | 46.37725 | 22.18702 | 38206 ft | 378 kts | 302° |
| 2026-04-29 19:39 | 46.40595 | 22.12394 | 38207 ft | 377 kts | 302° |
| 2026-04-29 19:39 | 46.43474 | 22.06036 | 38206 ft | 377 kts | 302° |
| 2026-04-29 19:40 | 46.46352 | 21.99670 | 38209 ft | 377 kts | 301° |
| 2026-04-29 19:40 | 46.49222 | 21.93298 | 38210 ft | 377 kts | 301° |
| 2026-04-29 19:41 | 46.52098 | 21.86926 | 38203 ft | 377 kts | 301° |
| 2026-04-29 19:41 | 46.54973 | 21.80538 | 38219 ft | 378 kts | 302° |
| 2026-04-29 19:42 | 46.57848 | 21.74133 | 38210 ft | 379 kts | 302° |
| 2026-04-29 19:42 | 46.60729 | 21.67711 | 38213 ft | 379 kts | 302° |
| 2026-04-29 19:43 | 46.63602 | 21.61273 | 38214 ft | 380 kts | 301° |
| 2026-04-29 19:43 | 46.66473 | 21.54820 | 38215 ft | 380 kts | 301° |
| 2026-04-29 19:44 | 46.69196 | 21.48247 | 38218 ft | 379 kts | 293° |
| 2026-04-29 19:44 | 46.71299 | 21.41210 | 38219 ft | 379 kts | 293° |
| 2026-04-29 19:45 | 46.73413 | 21.34169 | 38220 ft | 379 kts | 293° |
| 2026-04-29 19:45 | 46.75526 | 21.27124 | 38226 ft | 379 kts | 293° |
| 2026-04-29 19:46 | 46.77634 | 21.20078 | 38231 ft | 379 kts | 293° |
| 2026-04-29 19:46 | 46.79730 | 21.13014 | 38235 ft | 379 kts | 293° |
| 2026-04-29 19:47 | 46.81814 | 21.05942 | 38239 ft | 379 kts | 293° |
| 2026-04-29 19:47 | 46.83889 | 20.98915 | 38241 ft | 379 kts | 293° |
| 2026-04-29 19:48 | 46.85983 | 20.91835 | 38242 ft | 379 kts | 293° |
| 2026-04-29 19:48 | 46.88070 | 20.84751 | 38248 ft | 379 kts | 293° |
| 2026-04-29 19:49 | 46.90149 | 20.77661 | 38242 ft | 379 kts | 293° |
| 2026-04-29 19:49 | 46.92220 | 20.70565 | 38247 ft | 379 kts | 293° |
| 2026-04-29 19:50 | 46.94287 | 20.63460 | 38249 ft | 379 kts | 293° |
| 2026-04-29 19:50 | 46.96354 | 20.56355 | 38252 ft | 379 kts | 293° |
| 2026-04-29 19:51 | 46.98411 | 20.49241 | 38252 ft | 379 kts | 292° |
| 2026-04-29 19:51 | 47.00466 | 20.42119 | 38258 ft | 379 kts | 292° |
| 2026-04-29 19:52 | 47.02520 | 20.34993 | 38259 ft | 379 kts | 292° |
| 2026-04-29 19:52 | 47.04569 | 20.27864 | 38259 ft | 379 kts | 292° |
| 2026-04-29 19:53 | 47.06611 | 20.20729 | 38263 ft | 379 kts | 292° |
| 2026-04-29 19:53 | 47.08651 | 20.13594 | 38265 ft | 379 kts | 292° |
| 2026-04-29 19:54 | 47.11690 | 20.02915 | 38260 ft | 380 kts | 292° |
| 2026-04-29 19:54 | 47.13716 | 19.95754 | 38261 ft | 380 kts | 292° |
| 2026-04-29 19:55 | 47.15739 | 19.88577 | 38264 ft | 380 kts | 292° |
| 2026-04-29 19:55 | 47.17763 | 19.81400 | 38273 ft | 380 kts | 292° |
| 2026-04-29 19:56 | 47.19781 | 19.74209 | 38230 ft | 381 kts | 292° |
| 2026-04-29 19:56 | 47.21456 | 19.68214 | 38236 ft | 382 kts | 292° |
| 2026-04-29 19:57 | 47.23484 | 19.60965 | 38241 ft | 384 kts | 293° |
| 2026-04-29 19:57 | 47.25514 | 19.53691 | 38250 ft | 384 kts | 292° |
| 2026-04-29 19:58 | 47.27537 | 19.46399 | 38263 ft | 385 kts | 292° |
| 2026-04-29 19:58 | 47.29558 | 19.39090 | 38250 ft | 386 kts | 293° |
| 2026-04-29 19:59 | 47.31580 | 19.31758 | 38247 ft | 387 kts | 293° |
| 2026-04-29 19:59 | 47.33607 | 19.24395 | 38253 ft | 388 kts | 293° |
| 2026-04-29 20:00 | 47.35634 | 19.17009 | 38256 ft | 389 kts | 293° |
| 2026-04-29 20:00 | 47.37659 | 19.09610 | 38260 ft | 389 kts | 292° |
| 2026-04-29 20:01 | 47.39660 | 19.02242 | 38249 ft | 389 kts | 293° |
| 2026-04-29 20:01 | 47.41671 | 18.94813 | 38252 ft | 390 kts | 293° |
| 2026-04-29 20:02 | 47.43696 | 18.87368 | 38258 ft | 391 kts | 293° |
| 2026-04-29 20:02 | 47.45391 | 18.81122 | 38260 ft | 391 kts | 293° |
| 2026-04-29 20:03 | 47.47723 | 18.72434 | 38262 ft | 391 kts | 292° |
| 2026-04-29 20:03 | 47.49729 | 18.64954 | 38252 ft | 392 kts | 293° |
| 2026-04-29 20:04 | 47.51739 | 18.57457 | 38249 ft | 393 kts | 293° |
| 2026-04-29 20:04 | 47.53745 | 18.49929 | 38256 ft | 394 kts | 293° |
| 2026-04-29 20:05 | 47.55559 | 18.42269 | 38261 ft | 395 kts | 289° |
| 2026-04-29 20:05 | 47.57153 | 18.34480 | 38275 ft | 395 kts | 288° |
| 2026-04-29 20:06 | 47.58742 | 18.26683 | 38262 ft | 395 kts | 289° |
| 2026-04-29 20:06 | 47.60371 | 18.18921 | 38282 ft | 394 kts | 289° |
| 2026-04-29 20:07 | 47.62015 | 18.11173 | 38289 ft | 394 kts | 289° |
| 2026-04-29 20:07 | 47.63652 | 18.03434 | 38297 ft | 393 kts | 289° |
| 2026-04-29 20:08 | 47.65002 | 17.97004 | 38294 ft | 393 kts | 289° |
| 2026-04-29 20:08 | 47.66882 | 17.87952 | 38287 ft | 393 kts | 289° |
| 2026-04-29 20:09 | 47.68488 | 17.80197 | 38305 ft | 394 kts | 289° |
| 2026-04-29 20:09 | 47.70091 | 17.72472 | 38302 ft | 395 kts | 289° |
| 2026-04-29 20:10 | 47.71701 | 17.64672 | 38292 ft | 396 kts | 289° |
| 2026-04-29 20:10 | 47.73310 | 17.56848 | 38298 ft | 396 kts | 289° |
| 2026-04-29 20:11 | 47.74671 | 17.48907 | 38293 ft | 400 kts | 279° |
| 2026-04-29 20:11 | 47.74839 | 17.40609 | 38294 ft | 402 kts | 274° |
| 2026-04-29 20:12 | 47.74947 | 17.32313 | 38300 ft | 401 kts | 274° |
| 2026-04-29 20:12 | 47.75053 | 17.24027 | 38324 ft | 401 kts | 274° |
| 2026-04-29 20:13 | 47.75151 | 17.15748 | 38326 ft | 400 kts | 274° |
| 2026-04-29 20:13 | 47.75240 | 17.07477 | 38327 ft | 400 kts | 274° |
| 2026-04-29 20:14 | 47.75324 | 16.99199 | 38307 ft | 401 kts | 274° |
| 2026-04-29 20:14 | 47.75406 | 16.90903 | 38308 ft | 402 kts | 274° |
| 2026-04-29 20:15 | 47.75482 | 16.82588 | 38314 ft | 403 kts | 274° |
| 2026-04-29 20:15 | 47.75552 | 16.74256 | 38318 ft | 403 kts | 274° |
| 2026-04-29 20:16 | 47.75614 | 16.65920 | 38208 ft | 405 kts | 274° |
| 2026-04-29 20:16 | 47.75642 | 16.61747 | 37939 ft | 403 kts | 274° |
| 2026-04-29 20:16 | 47.75668 | 16.57584 | 37676 ft | 402 kts | 274° |
| 2026-04-29 20:17 | 47.75686 | 16.53434 | 37424 ft | 402 kts | 274° |
| 2026-04-29 20:17 | 47.75702 | 16.49286 | 37166 ft | 401 kts | 274° |
| 2026-04-29 20:17 | 47.75718 | 16.45196 | 36916 ft | 401 kts | 274° |
| 2026-04-29 20:17 | 47.75736 | 16.41002 | 36661 ft | 400 kts | 274° |
| 2026-04-29 20:18 | 47.75754 | 16.36869 | 36424 ft | 400 kts | 274° |
| 2026-04-29 20:18 | 47.75772 | 16.32794 | 36182 ft | 399 kts | 274° |
| 2026-04-29 20:18 | 47.75791 | 16.28667 | 35938 ft | 399 kts | 274° |
| 2026-04-29 20:18 | 47.75809 | 16.24549 | 35697 ft | 399 kts | 274° |
| 2026-04-29 20:19 | 47.75824 | 16.20434 | 35458 ft | 398 kts | 274° |
| 2026-04-29 20:19 | 47.75835 | 16.16326 | 35211 ft | 397 kts | 274° |
| 2026-04-29 20:19 | 47.75841 | 16.12236 | 34970 ft | 396 kts | 274° |
| 2026-04-29 20:19 | 47.75847 | 16.08152 | 34744 ft | 395 kts | 274° |
| 2026-04-29 20:20 | 47.75859 | 16.04072 | 34513 ft | 394 kts | 274° |
| 2026-04-29 20:20 | 47.75875 | 16.00010 | 34280 ft | 392 kts | 274° |
| 2026-04-29 20:20 | 47.75888 | 15.95973 | 34005 ft | 390 kts | 274° |
| 2026-04-29 20:20 | 47.75896 | 15.91957 | 33731 ft | 387 kts | 274° |
| 2026-04-29 20:21 | 47.75900 | 15.87970 | 33460 ft | 385 kts | 274° |
| 2026-04-29 20:21 | 47.75902 | 15.84005 | 33194 ft | 383 kts | 274° |
| 2026-04-29 20:21 | 47.75901 | 15.80063 | 32929 ft | 380 kts | 273° |
| 2026-04-29 20:21 | 47.75897 | 15.76145 | 32634 ft | 378 kts | 273° |
| 2026-04-29 20:22 | 47.75894 | 15.72241 | 32407 ft | 378 kts | 273° |
| 2026-04-29 20:22 | 47.75891 | 15.68336 | 32353 ft | 378 kts | 273° |
| 2026-04-29 20:22 | 47.75886 | 15.60506 | 32284 ft | 380 kts | 273° |
| 2026-04-29 20:23 | 47.75877 | 15.56595 | 32018 ft | 377 kts | 273° |
| 2026-04-29 20:23 | 47.75877 | 15.56579 | 32017 ft | 377 kts | 273° |
| 2026-04-29 20:24 | 47.75868 | 15.54179 | 31868 ft | 376 kts | 272° |
| 2026-04-29 20:24 | 47.75850 | 15.50306 | 31615 ft | 374 kts | 272° |
| 2026-04-29 20:24 | 47.75834 | 15.46458 | 31360 ft | 372 kts | 272° |
| 2026-04-29 20:24 | 47.75821 | 15.42627 | 31114 ft | 370 kts | 272° |
| 2026-04-29 20:25 | 47.75807 | 15.38815 | 30872 ft | 368 kts | 272° |
| 2026-04-29 20:25 | 47.75791 | 15.35027 | 30627 ft | 366 kts | 272° |
| 2026-04-29 20:25 | 47.75775 | 15.31258 | 30335 ft | 365 kts | 272° |
| 2026-04-29 20:25 | 47.75758 | 15.27479 | 30045 ft | 366 kts | 272° |
| 2026-04-29 20:26 | 47.75738 | 15.23695 | 29752 ft | 366 kts | 272° |
| 2026-04-29 20:26 | 47.75717 | 15.19975 | 29476 ft | 364 kts | 272° |
| 2026-04-29 20:26 | 47.75697 | 15.16218 | 29195 ft | 363 kts | 272° |
| 2026-04-29 20:26 | 47.75674 | 15.12482 | 28910 ft | 361 kts | 272° |
| 2026-04-29 20:27 | 47.75648 | 15.08761 | 28637 ft | 359 kts | 272° |
| 2026-04-29 20:27 | 47.75630 | 15.06257 | 28449 ft | 358 kts | 272° |
| 2026-04-29 20:27 | 47.75595 | 15.01364 | 28092 ft | 356 kts | 272° |
| 2026-04-29 20:27 | 47.75569 | 14.97696 | 27821 ft | 354 kts | 272° |
| 2026-04-29 20:28 | 47.75539 | 14.94042 | 27542 ft | 353 kts | 272° |
| 2026-04-29 20:28 | 47.75507 | 14.90408 | 27278 ft | 351 kts | 272° |
| 2026-04-29 20:28 | 47.75476 | 14.86783 | 26991 ft | 352 kts | 274° |
| 2026-04-29 20:28 | 47.75448 | 14.83144 | 26731 ft | 353 kts | 274° |
| 2026-04-29 20:29 | 47.75420 | 14.79501 | 26472 ft | 352 kts | 274° |
| 2026-04-29 20:29 | 47.75389 | 14.75869 | 26214 ft | 351 kts | 274° |
| 2026-04-29 20:29 | 47.75355 | 14.72253 | 25964 ft | 350 kts | 274° |
| 2026-04-29 20:29 | 47.75320 | 14.68650 | 25715 ft | 348 kts | 274° |
| 2026-04-29 20:30 | 47.75285 | 14.65062 | 25467 ft | 347 kts | 274° |
| 2026-04-29 20:30 | 47.75248 | 14.61491 | 25225 ft | 345 kts | 274° |
| 2026-04-29 20:30 | 47.75207 | 14.57935 | 24979 ft | 343 kts | 273° |
| 2026-04-29 20:30 | 47.75164 | 14.54393 | 24739 ft | 342 kts | 274° |
| 2026-04-29 20:31 | 47.75122 | 14.50864 | 24503 ft | 341 kts | 274° |
| 2026-04-29 20:31 | 47.75081 | 14.47350 | 24265 ft | 340 kts | 274° |
| 2026-04-29 20:31 | 47.75039 | 14.43844 | 23997 ft | 340 kts | 274° |
| 2026-04-29 20:31 | 47.74997 | 14.40326 | 23737 ft | 341 kts | 274° |
| 2026-04-29 20:32 | 47.74953 | 14.36804 | 23447 ft | 341 kts | 274° |
| 2026-04-29 20:32 | 47.74907 | 14.33287 | 23154 ft | 339 kts | 273° |
| 2026-04-29 20:32 | 47.74860 | 14.29842 | 22882 ft | 338 kts | 274° |
| 2026-04-29 20:32 | 47.74828 | 14.27489 | 22693 ft | 337 kts | 273° |
| 2026-04-29 20:33 | 47.74761 | 14.22900 | 22335 ft | 335 kts | 273° |
| 2026-04-29 20:33 | 47.74709 | 14.19449 | 22072 ft | 333 kts | 273° |
| 2026-04-29 20:33 | 47.74659 | 14.16019 | 21804 ft | 332 kts | 273° |
| 2026-04-29 20:33 | 47.74609 | 14.12556 | 21538 ft | 330 kts | 273° |
| 2026-04-29 20:34 | 47.74560 | 14.09152 | 21274 ft | 329 kts | 274° |
| 2026-04-29 20:34 | 47.74508 | 14.05765 | 21016 ft | 327 kts | 273° |
| 2026-04-29 20:34 | 47.74453 | 14.02456 | 20683 ft | 322 kts | 273° |
| 2026-04-29 20:34 | 47.74399 | 13.99146 | 20236 ft | 319 kts | 273° |
| 2026-04-29 20:35 | 47.74374 | 13.95864 | 19816 ft | 316 kts | 277° |
| 2026-04-29 20:35 | 47.74688 | 13.92674 | 19390 ft | 309 kts | 288° |
| 2026-04-29 20:35 | 47.75370 | 13.89670 | 18979 ft | 305 kts | 294° |
| 2026-04-29 20:35 | 47.76122 | 13.86740 | 18555 ft | 303 kts | 294° |
| 2026-04-29 20:36 | 47.76865 | 13.83815 | 18101 ft | 301 kts | 294° |
| 2026-04-29 20:36 | 47.77595 | 13.80918 | 17698 ft | 297 kts | 294° |
| 2026-04-29 20:36 | 47.78308 | 13.78065 | 17304 ft | 293 kts | 294° |
| 2026-04-29 20:36 | 47.79019 | 13.75225 | 16907 ft | 293 kts | 294° |
| 2026-04-29 20:37 | 47.79729 | 13.72403 | 16519 ft | 290 kts | 294° |
| 2026-04-29 20:37 | 47.80430 | 13.69612 | 16142 ft | 287 kts | 294° |
| 2026-04-29 20:37 | 47.81130 | 13.66829 | 15765 ft | 287 kts | 294° |
| 2026-04-29 20:37 | 47.81831 | 13.64046 | 15387 ft | 288 kts | 294° |
| 2026-04-29 20:38 | 47.82530 | 13.61264 | 14993 ft | 287 kts | 294° |
| 2026-04-29 20:38 | 47.83225 | 13.58481 | 14642 ft | 287 kts | 294° |
| 2026-04-29 20:38 | 47.83922 | 13.55691 | 14254 ft | 288 kts | 294° |
| 2026-04-29 20:38 | 47.84620 | 13.52894 | 13845 ft | 288 kts | 294° |
| 2026-04-29 20:39 | 47.85315 | 13.50104 | 13449 ft | 287 kts | 294° |
| 2026-04-29 20:39 | 47.86006 | 13.47332 | 13071 ft | 285 kts | 294° |
| 2026-04-29 20:39 | 47.86691 | 13.44570 | 12684 ft | 284 kts | 294° |
| 2026-04-29 20:39 | 47.87375 | 13.41815 | 12294 ft | 283 kts | 294° |
| 2026-04-29 20:40 | 47.88056 | 13.39078 | 11901 ft | 281 kts | 294° |
| 2026-04-29 20:40 | 47.88734 | 13.36348 | 11508 ft | 280 kts | 294° |
| 2026-04-29 20:40 | 47.89406 | 13.33630 | 11114 ft | 279 kts | 294° |
| 2026-04-29 20:40 | 47.90077 | 13.30917 | 10711 ft | 278 kts | 294° |
| 2026-04-29 20:41 | 47.90743 | 13.28214 | 10312 ft | 277 kts | 293° |
| 2026-04-29 20:41 | 47.91406 | 13.25516 | 9863 ft | 277 kts | 293° |
| 2026-04-29 20:41 | 47.92059 | 13.22862 | 9432 ft | 275 kts | 293° |
| 2026-04-29 20:41 | 47.92717 | 13.20194 | 9016 ft | 273 kts | 293° |
| 2026-04-29 20:42 | 47.93369 | 13.17538 | 8561 ft | 273 kts | 292° |
| 2026-04-29 20:42 | 47.94020 | 13.14880 | 8129 ft | 272 kts | 292° |
| 2026-04-29 20:42 | 47.94672 | 13.12217 | 7497 ft | 278 kts | 291° |
| 2026-04-29 20:42 | 47.95348 | 13.09459 | 6844 ft | 286 kts | 291° |
| 2026-04-29 20:43 | 47.96032 | 13.06656 | 6255 ft | 288 kts | 291° |
| 2026-04-29 20:43 | 47.96720 | 13.03845 | 5751 ft | 288 kts | 291° |
| 2026-04-29 20:43 | 47.97384 | 13.01120 | 5646 ft | 270 kts | 291° |
| 2026-04-29 20:43 | 47.98004 | 12.98565 | 5584 ft | 254 kts | 291° |
| 2026-04-29 20:44 | 47.98591 | 12.96148 | 5490 ft | 241 kts | 291° |
| 2026-04-29 20:44 | 47.99023 | 12.93793 | 5376 ft | 230 kts | 270° |
| 2026-04-29 20:44 | 47.98616 | 12.91602 | 5275 ft | 214 kts | 230° |
| 2026-04-29 20:44 | 47.97551 | 12.90281 | 5137 ft | 196 kts | 195° |
| 2026-04-29 20:45 | 47.96259 | 12.89977 | 4966 ft | 185 kts | 169° |
| 2026-04-29 20:45 | 47.95029 | 12.90436 | 4661 ft | 182 kts | 148° |
| 2026-04-29 20:45 | 47.93863 | 12.91185 | 4399 ft | 184 kts | 149° |
| 2026-04-29 20:45 | 47.92683 | 12.91933 | 4148 ft | 184 kts | 148° |
| 2026-04-29 20:46 | 47.91540 | 12.92655 | 3895 ft | 173 kts | 149° |
| 2026-04-29 20:46 | 47.90469 | 12.93332 | 3662 ft | 162 kts | 149° |
| 2026-04-29 20:46 | 47.89460 | 12.93973 | 3458 ft | 154 kts | 148° |
| 2026-04-29 20:46 | 47.88506 | 12.94577 | 3254 ft | 145 kts | 148° |
| 2026-04-29 20:47 | 47.87620 | 12.95137 | 3067 ft | 130 kts | 147° |
| 2026-04-29 20:47 | 47.86829 | 12.95638 | 2896 ft | 120 kts | 146° |
| 2026-04-29 20:47 | 47.86071 | 12.96126 | 2736 ft | 118 kts | 145° |
| 2026-04-29 20:47 | 47.85561 | 12.96447 | 2589 ft | 118 kts | 147° |
| 2026-04-29 20:48 | 47.84815 | 12.96926 | 2419 ft | 119 kts | 149° |
| 2026-04-29 20:48 | 47.84048 | 12.97413 | 2246 ft | 121 kts | 151° |
| 2026-04-29 20:48 | 47.83273 | 12.97901 | 2092 ft | 121 kts | 152° |
| 2026-04-29 20:48 | 47.82492 | 12.98397 | 1941 ft | 122 kts | 152° |
| 2026-04-29 20:49 | 47.81703 | 12.98897 | 1760 ft | 123 kts | 152° |
| 2026-04-29 20:49 | 47.80920 | 12.99392 | 1594 ft | 121 kts | 152° |
| 2026-04-29 20:49 | 47.80146 | 12.99881 | 1430 ft | 120 kts | 152° |
| 2026-04-29 20:49 | 47.79473 | 13.00311 | 1418 ft | 85 kts | 158° |
| 2026-04-29 20:50 | 47.79081 | 13.00556 | 1413 ft | 42 kts | 157° |
| 2026-04-29 20:50 | 47.78824 | 13.00720 | 1415 ft | 39 kts | 158° |
| 2026-04-29 20:50 | 47.78632 | 13.00838 | 1416 ft | 15 kts | 157° |
| 2026-04-29 20:50 | 47.78548 | 13.00791 | 1417 ft | 16 kts | 245° |
| 2026-04-29 20:51 | 47.78548 | 13.00631 | 1418 ft | 17 kts | 319° |
| 2026-04-29 20:51 | 47.78661 | 13.00553 | 1415 ft | 19 kts | 336° |
| 2026-04-29 20:51 | 47.78798 | 13.00467 | 1417 ft | 23 kts | 338° |
| 2026-04-29 20:51 | 47.78949 | 13.00373 | 1417 ft | 25 kts | 336° |
| 2026-04-29 20:52 | 47.79115 | 13.00267 | 1415 ft | 27 kts | 336° |
| 2026-04-29 20:52 | 47.79299 | 13.00151 | 1415 ft | 29 kts | 337° |
| 2026-04-29 20:52 | 47.79454 | 13.00053 | 1421 ft | 24 kts | 337° |
| 2026-04-29 20:52 | 47.79558 | 12.99972 | 1415 ft | 9 kts | 300° |
| 2026-04-29 20:53 | 47.79557 | 12.99931 | 1420 ft | 5 kts | 256° |
| 2026-04-29 20:53 | 47.79548 | 12.99848 | 1422 ft | 0 kts | 306° |
| 2026-04-29 20:53 | 47.79552 | 12.99849 | 1422 ft | 0 kts | 343° |
| 2026-04-29 20:53 | 47.79565 | 12.99863 | 1422 ft | 5 kts | 30° |
| 2026-04-29 20:54 | 47.79595 | 12.99879 | 1422 ft | 0 kts | 15° |